agrofy.com.ar alexa rank chart, agrofy.com.ar alexa rank daily changes

agrofy.com.ar alexa rank chart, agrofy.com.ar alexa rank daily changes

agrofy.com.ar
Actual rank:
131 866

RANK HISTORY

Date Rank Diff
2019/05/26 131 866 -4 448
2019/05/25 136 314 +41 399
2019/05/24 94 915 +5 690
2019/05/23 89 225 +27 502
2019/05/22 61 723 -23 434
2019/05/21 85 157 +23 385
2019/05/20 61 772 -19 452
2019/05/19 81 224 -14 117
2019/05/18 95 341 -9 103
2019/05/17 104 444 +16 819
2019/05/16 87 625 -18 408
2019/05/15 106 033 +10 132
2019/05/14 95 901 +49 243
2019/05/13 46 658 -23 614
2019/05/12 70 272 -44 005
2019/05/11 114 277 -16 949
2019/05/10 131 226 +32 417
2019/05/09 98 809 +43 925
2019/05/08 54 884 -24 611
2019/05/07 79 495 -49 908
2019/05/06 129 403 +53 006
2019/05/05 76 397 -26 494
2019/05/04 102 891 -18 094
2019/05/03 120 985 +43 045
2019/05/02 77 940 -7 745
2019/05/01 85 685 -104 710
2019/04/30 190 395 +100 836
2019/04/29 89 559 -100 532
2019/04/28 190 091 +89 529
2019/04/27 100 562 +26 116
2019/04/26 74 446 -26 515
2019/04/25 100 961 +3 627
2019/04/24 97 334 +5 869
2019/04/23 91 465 -46 007
2019/04/22 137 472 +38 812
2019/04/21 98 660 -6 377
2019/04/20 105 037 +14 967
2019/04/19 90 070 -14 271
2019/04/18 104 341 +8 893
2019/04/17 95 448 -120 480
2019/04/16 215 928 +92 691
2019/04/15 123 237 -66 733
2019/04/14 189 970 +98 160
2019/04/13 91 810 -26 777
2019/04/12 118 587 +52 570
2019/04/11 66 017 -41 574
2019/04/10 107 591 -35 809
2019/04/09 143 400 -26 560
2019/04/08 169 960 +43 751
2019/04/07 126 209 +37 432
2019/04/06 88 777 -27 171
2019/04/05 115 948 +690
2019/04/04 115 258 -39 799
2019/04/03 155 057 +62 484
2019/04/02 92 573 +9 384
2019/04/01 83 189 +561
2019/03/31 82 628 -13 232
2019/03/30 95 860 -649
2019/03/29 96 509 +36 532
2019/03/28 59 977 -42 171
2019/03/27 102 148

WIDGET FOR YOUR SITE

DOMAINS WITH THE NEAREST RANK

Domain Rank
findthat.email 131 861
exceltip.com 131 862
kursktv.ru 131 863
pvamu.edu 131 864
designmyhomee.com 131 865
agrofy.com.ar 131 866
econotimes.com 131 867
zet.hr 131 868
gwinstek.com 131 869
negativespace.co 131 870
wearehairyfree.com 131 871

DOMAINS WITH THE NEAREST RANK BY TLD .com.ar

Domain Rank
bidcom.com.ar 130 503
quepasajujuy.com.ar 130 670
gigared.com.ar 130 806
dossiernet.com.ar 131 098
sodimac.com.ar 131 478
agrofy.com.ar 131 866
puntobiz.com.ar 132 520
epson.com.ar 132 624
radionacional.com.ar 132 797
aa2000.com.ar 133 176
diariosanrafael.com.ar 133 559